Grande Europa — ICGE — position and weather

sailwx.info

Track history (hours):
 
Tides and Currents Weather Stations Pressure Air Temp Water Temp Dewpoint Dewpoint Depression Visibility Wind Speed Wind Dir Waves Ship Positions

Grande Europa

Last reported at 2015-Jul-04 23:33 UTC. Time now 2015-Jul-05 00:11 UTC.
Position N 52°41' E 003°33'.

Length 183 m; draft 8.3 m.

Type: Cargo ship. MMSI: 247206000.

Date/timePositionNaut miles runAvg speedWind from/ knotsBaromVisibWave heightAir tempDewpointWater temp
2015-Jul-04 23:33N 52°41' E 003°33'1414.3
2015-Jul-04 22:33N 52°51' E 003°50'1515.2
2015-Jul-04 21:33N 53°02' E 004°08'1414.1
2015-Jul-04 20:33N 53°12' E 004°25'1313.4
2015-Jul-04 19:33N 53°24' E 004°32'1413.9
2015-Jul-04 18:33N 53°37' E 004°40'1413.7
2015-Jul-04 17:33N 53°50' E 004°49'1414.3
2015-Jul-04 16:33N 54°04' E 004°57'1414.5
2015-Jul-04 15:34N 54°17' E 005°07'1414.3
2015-Jul-04 14:34N 54°30' E 005°17'3114.6
2015-Jul-04 12:27N 54°56' E 005°46'1415.0
2015-Jul-04 11:33N 55°07' E 005°59'1515.1
2015-Jul-04 10:33N 55°20' E 006°13'12015.1
2015-Jul-04 02:33N 57°02' E 008°07'1715.2
2015-Jul-04 01:25N 57°15' E 008°28'1314.8
2015-Jul-04 00:33N 57°24' E 008°46'1515.1
2015-Jul-03 23:33N 57°33' E 009°08'1615.8
2015-Jul-03 22:33N 57°46' E 009°26'1616.0
2015-Jul-03 21:33N 57°51' E 009°55'1514.9
2015-Jul-03 20:33N 57°50' E 010°23'1414.0
2015-Jul-03 19:33N 57°52' E 010°49'1414.5
2015-Jul-03 18:33N 57°51' E 011°16'1212.2
2015-Jul-03 17:34N 57°55' E 011°37'6 5.3
2015-Jul-03 16:22N 58°01' E 011°42'0 0.0
2015-Jul-03 15:28N 58°01' E 011°42'0 0.0
2015-Jul-03 14:28N 58°01' E 011°42'0 0.0
2015-Jul-03 13:22N 58°01' E 011°42'0 0.0
2015-Jul-03 12:25N 58°01' E 011°42'0 0.0
2015-Jul-03 11:28N 58°01' E 011°42'0 0.0
2015-Jul-03 10:31N 58°01' E 011°42'0 0.0
2015-Jul-03 09:28N 58°01' E 011°42'0 0.0
2015-Jul-03 08:31N 58°01' E 011°42'0 0.0
2015-Jul-03 07:31N 58°01' E 011°42'5 5.0
2015-Jul-03 06:33N 57°56' E 011°40'1111.2
2015-Jul-03 05:33N 57°51' E 011°21'1514.8
2015-Jul-03 04:33N 57°50' E 010°54'1716.9
2015-Jul-03 03:33N 57°49' E 010°22'1717.1
2015-Jul-03 02:33N 57°45' E 009°51'1916.3
2015-Jul-03 01:25N 57°39' E 009°19'1617.3
2015-Jul-03 00:31N 57°28' E 008°56'11716.7
2015-Jul-02 17:30N 55°43' E 007°22'1515.5
2015-Jul-02 16:33N 55°29' E 007°32'1717.5
2015-Jul-02 15:33N 55°25' E 008°01'1312.5
2015-Jul-02 14:33N 55°29' E 008°22'3 2.9
2015-Jul-02 13:31N 55°28' E 008°27'0 0.0
2015-Jul-02 12:31N 55°28' E 008°27'0 0.0
2015-Jul-02 11:32N 55°28' E 008°27'0 0.0
2015-Jul-02 10:16N 55°28' E 008°27'0 0.0
2015-Jul-02 09:32N 55°28' E 008°27'0 0.0
2015-Jul-02 08:31N 55°28' E 008°27'0 0.0
2015-Jul-02 07:25N 55°28' E 008°27'0 0.0
2015-Jul-02 06:25N 55°28' E 008°27'0 0.0
2015-Jul-02 05:06N 55°28' E 008°27'1 2.1
2015-Jul-02 04:30N 55°28' E 008°25'1011.0
2015-Jul-02 03:33N 55°24' E 008°08'1010.0
2015-Jul-02 02:32N 55°17' E 007°55'2619.9
2015-Jul-02 01:13N 55°00' E 007°19'2 3.3
2015-Jul-02 00:32N 54°59' E 007°16'6014.8
2015-Jul-01 20:29N 54°31' E 005°44'1515.7
2015-Jul-01 19:33N 54°24' E 005°22'1515.1
2015-Jul-01 18:33N 54°16' E 005°00'1614.8
2015-Jul-01 17:30N 54°05' E 004°41'1515.6
2015-Jul-01 16:33N 53°52' E 004°30'4615.2
2015-Jul-01 13:31N 53°18' E 003°36'1515.5
2015-Jul-01 12:33N 53°05' E 003°26'1514.6
2015-Jul-01 11:33N 52°51' E 003°17'1615.7
2015-Jul-01 10:33N 52°37' E 003°06'1615.9
2015-Jul-01 09:34N 52°23' E 002°55'1515.4
2015-Jul-01 08:34N 52°09' E 002°44'1515.2
2015-Jul-01 07:34N 51°54' E 002°40'1413.6
2015-Jul-01 06:33N 51°42' E 002°29'1413.9
2015-Jul-01 05:33N 51°31' E 002°14'1514.6
2015-Jul-01 04:33N 51°20' E 001°59'1514.8
2015-Jul-01 03:33N 51°09' E 001°43'1515.2
2015-Jul-01 02:33N 50°57' E 001°28'1615.8
2015-Jul-01 01:34N 50°42' E 001°20'1615.6
2015-Jul-01 00:31N 50°32' E 001°01'3214.5
2015-Jun-30 22:19N 50°22' E 000°13'1114.5
2015-Jun-30 21:33N 50°19' W 000°04'1515.0
2015-Jun-30 20:34N 50°15' W 000°27'1616.0
2015-Jun-30 19:33N 50°11' W 000°50'1717.1
2015-Jun-30 18:33N 50°06' W 001°16'1817.7
2015-Jun-30 17:33N 50°01' W 001°43'1717.2
2015-Jun-30 16:33N 49°57' W 002°09'1615.8
2015-Jun-30 15:33N 49°53' W 002°32'1515.2
2015-Jun-30 14:33N 49°50' W 002°55'1615.7
2015-Jun-30 13:33N 49°50' W 003°19'9315.3
2015-Jun-30 07:30N 49°55' W 005°43'2412.0
2015-Jun-30 05:29N 50°16' W 006°02'1414.7
2015-Jun-30 04:32N 50°28' W 006°13'1515.5
2015-Jun-30 03:33N 50°39' W 006°29'1615.6
2015-Jun-30 02:33N 50°50' W 006°47'1615.7
2015-Jun-30 01:33N 51°01' W 007°04'2115.7
2015-Jun-30 00:13N 51°16' W 007°28'1015.6
2015-Jun-29 23:33N 51°23' W 007°40'1515.5
2015-Jun-29 22:34N 51°34' W 007°57'1515.2
2015-Jun-29 21:33N 51°45' W 008°15'6 6.3
2015-Jun-29 20:33N 51°50' W 008°19'0 0.5
2015-Jun-29 19:33N 51°50' W 008°20'0 0.0
2015-Jun-29 18:30N 51°50' W 008°20'0 0.0
2015-Jun-29 17:33N 51°50' W 008°20'0 0.0
2015-Jun-29 16:33N 51°50' W 008°20'0 0.0
2015-Jun-29 15:33N 51°50' W 008°20'0 0.0
2015-Jun-29 14:33N 51°50' W 008°20'0 0.0
2015-Jun-29 13:30N 51°50' W 008°20'0 0.0
2015-Jun-29 12:27N 51°50' W 008°20'0 0.0
2015-Jun-29 11:33N 51°50' W 008°20'0 0.0
2015-Jun-29 10:33N 51°50' W 008°20'0 0.0
2015-Jun-29 09:33N 51°50' W 008°20'1 1.3
2015-Jun-29 08:33N 51°51' W 008°18'7 7.3
2015-Jun-29 07:34N 51°45' W 008°11'1716.5
2015-Jun-29 06:33N 51°42' W 007°45'1817.6
2015-Jun-29 05:33N 51°40' W 007°17'4117.3
2015-Jun-29 03:11N 51°34' W 006°11'1117.2
2015-Jun-29 02:33N 51°33' W 005°53'10016.4
2015-Jun-28 20:27N 51°21' W 003°14'1314.4
2015-Jun-28 19:33N 51°28' W 002°56'8 7.7
2015-Jun-28 18:32N 51°30' W 002°44'0 0.4
2015-Jun-28 17:31N 51°30' W 002°43'0 0.0
2015-Jun-28 16:31N 51°30' W 002°43'0 0.0
2015-Jun-28 15:31N 51°30' W 002°43'0 0.0
2015-Jun-28 14:31N 51°30' W 002°43'0 0.0
2015-Jun-28 13:31N 51°30' W 002°43'0 0.0
2015-Jun-28 12:31N 51°30' W 002°43'0 0.0
2015-Jun-28 11:31N 51°30' W 002°43'0 0.0
2015-Jun-28 10:31N 51°30' W 002°43'0 0.0
2015-Jun-28 09:31N 51°30' W 002°43'0 0.0
2015-Jun-28 08:31N 51°30' W 002°43'0 0.0
2015-Jun-28 07:31N 51°30' W 002°43'0 0.0
2015-Jun-28 06:31N 51°30' W 002°43'0 0.0
2015-Jun-28 05:31N 51°30' W 002°43'0 0.0
2015-Jun-28 04:31N 51°30' W 002°43'0 0.0
2015-Jun-28 03:31N 51°30' W 002°43'0 0.0
2015-Jun-28 02:33N 51°30' W 002°43'1 0.5
2015-Jun-28 01:34N 51°30' W 002°44'1010.3
2015-Jun-28 00:33N 51°27' W 002°59'8613.5
2015-Jun-27 18:12N 50°50' W 005°03'1016.1
2015-Jun-27 17:33N 50°43' W 005°15'1616.1
2015-Jun-27 16:33N 50°31' W 005°33'1916.0
2015-Jun-27 15:24N 50°17' W 005°52'46618.0
2015-Jun-26 13:28N 43°01' W 009°47'1718.2
2015-Jun-26 12:33N 42°44' W 009°47'1817.8
2015-Jun-26 11:33N 42°26' W 009°47'5518.3
2015-Jun-26 08:32N 41°31' W 009°49'1818.4
2015-Jun-26 07:33N 41°13' W 009°49'1817.9
2015-Jun-26 06:31N 40°55' W 009°49'2017.8
2015-Jun-26 05:23N 40°34' W 009°50'1517.9
2015-Jun-26 04:33N 40°19' W 009°50'1818.0
2015-Jun-26 03:33N 40°01' W 009°50'1817.5
2015-Jun-26 02:33N 39°44' W 009°50'1717.4
2015-Jun-26 01:33N 39°26' W 009°51'1717.0
2015-Jun-26 00:33N 39°09' W 009°51'1716.9
2015-Jun-25 23:33N 38°53' W 009°51'1716.6
2015-Jun-25 22:33N 38°36' W 009°49'1716.8
2015-Jun-25 21:33N 38°28' W 009°30'1717.1
2015-Jun-25 20:33N 38°20' W 009°11'1413.7
2015-Jun-25 19:34N 38°28' W 008°57'4 4.2
2015-Jun-25 18:32N 38°31' W 008°53'0 0.0
2015-Jun-25 17:32N 38°31' W 008°53'0 0.0
2015-Jun-25 16:32N 38°31' W 008°53'0 0.0
2015-Jun-25 15:32N 38°31' W 008°53'0 0.0
2015-Jun-25 14:29N 38°31' W 008°53'0 0.0
2015-Jun-25 13:32N 38°31' W 008°53'0 0.0
2015-Jun-25 12:32N 38°31' W 008°53'0 0.0
2015-Jun-25 11:32N 38°31' W 008°53'0 0.0
2015-Jun-25 10:33N 38°31' W 008°53'4 3.8
2015-Jun-25 09:33N 38°29' W 008°57'1211.9
2015-Jun-25 08:33N 38°18' W 009°02'1817.9
2015-Jun-25 07:33N 38°00' W 009°06'1818.2
2015-Jun-25 06:33N 37°42' W 009°10'1817.7
2015-Jun-25 05:33N 37°25' W 009°15'1817.5
2015-Jun-25 04:32N 37°08' W 009°19'2316.4
2015-Jun-25 03:09N 36°46' W 009°10'1017.1
2015-Jun-25 02:33N 36°42' W 008°59'1817.7
2015-Jun-25 01:33N 36°36' W 008°38'  
Track history (hours):
 
Tides and Currents Weather Stations Pressure Air Temp Water Temp Dewpoint Dewpoint Depression Visibility Wind Speed Wind Dir Waves Ship Positions

Grande Europa

Last reported at 2015-Jul-04 23:33 UTC. Time now 2015-Jul-05 00:11 UTC.
Position N 52°41' E 003°33'.

Length 183 m; draft 8.3 m.

Type: Cargo ship. MMSI: 247206000.

Date/timePositionNaut miles runAvg speedWind from/ knotsBaromVisibWave heightAir tempDewpointWater temp
2015-Jul-04 23:33N 52°41' E 003°33'1414.3
2015-Jul-04 22:33N 52°51' E 003°50'1515.2
2015-Jul-04 21:33N 53°02' E 004°08'1414.1
2015-Jul-04 20:33N 53°12' E 004°25'1313.4
2015-Jul-04 19:33N 53°24' E 004°32'1413.9
2015-Jul-04 18:33N 53°37' E 004°40'1413.7
2015-Jul-04 17:33N 53°50' E 004°49'1414.3
2015-Jul-04 16:33N 54°04' E 004°57'1414.5
2015-Jul-04 15:34N 54°17' E 005°07'1414.3
2015-Jul-04 14:34N 54°30' E 005°17'3114.6
2015-Jul-04 12:27N 54°56' E 005°46'1415.0
2015-Jul-04 11:33N 55°07' E 005°59'1515.1
2015-Jul-04 10:33N 55°20' E 006°13'12015.1
2015-Jul-04 02:33N 57°02' E 008°07'1715.2
2015-Jul-04 01:25N 57°15' E 008°28'1314.8
2015-Jul-04 00:33N 57°24' E 008°46'1515.1
2015-Jul-03 23:33N 57°33' E 009°08'1615.8
2015-Jul-03 22:33N 57°46' E 009°26'1616.0
2015-Jul-03 21:33N 57°51' E 009°55'1514.9
2015-Jul-03 20:33N 57°50' E 010°23'1414.0
2015-Jul-03 19:33N 57°52' E 010°49'1414.5
2015-Jul-03 18:33N 57°51' E 011°16'1212.2
2015-Jul-03 17:34N 57°55' E 011°37'6 5.3
2015-Jul-03 16:22N 58°01' E 011°42'0 0.0
2015-Jul-03 15:28N 58°01' E 011°42'0 0.0
2015-Jul-03 14:28N 58°01' E 011°42'0 0.0
2015-Jul-03 13:22N 58°01' E 011°42'0 0.0
2015-Jul-03 12:25N 58°01' E 011°42'0 0.0
2015-Jul-03 11:28N 58°01' E 011°42'0 0.0
2015-Jul-03 10:31N 58°01' E 011°42'0 0.0
2015-Jul-03 09:28N 58°01' E 011°42'0 0.0
2015-Jul-03 08:31N 58°01' E 011°42'0 0.0
2015-Jul-03 07:31N 58°01' E 011°42'5 5.0
2015-Jul-03 06:33N 57°56' E 011°40'1111.2
2015-Jul-03 05:33N 57°51' E 011°21'1514.8
2015-Jul-03 04:33N 57°50' E 010°54'1716.9
2015-Jul-03 03:33N 57°49' E 010°22'1717.1
2015-Jul-03 02:33N 57°45' E 009°51'1916.3
2015-Jul-03 01:25N 57°39' E 009°19'1617.3
2015-Jul-03 00:31N 57°28' E 008°56'11716.7
2015-Jul-02 17:30N 55°43' E 007°22'1515.5
2015-Jul-02 16:33N 55°29' E 007°32'1717.5
2015-Jul-02 15:33N 55°25' E 008°01'1312.5
2015-Jul-02 14:33N 55°29' E 008°22'3 2.9
2015-Jul-02 13:31N 55°28' E 008°27'0 0.0
2015-Jul-02 12:31N 55°28' E 008°27'0 0.0
2015-Jul-02 11:32N 55°28' E 008°27'0 0.0
2015-Jul-02 10:16N 55°28' E 008°27'0 0.0
2015-Jul-02 09:32N 55°28' E 008°27'0 0.0
2015-Jul-02 08:31N 55°28' E 008°27'0 0.0
2015-Jul-02 07:25N 55°28' E 008°27'0 0.0
2015-Jul-02 06:25N 55°28' E 008°27'0 0.0
2015-Jul-02 05:06N 55°28' E 008°27'1 2.1
2015-Jul-02 04:30N 55°28' E 008°25'1011.0
2015-Jul-02 03:33N 55°24' E 008°08'1010.0
2015-Jul-02 02:32N 55°17' E 007°55'2619.9
2015-Jul-02 01:13N 55°00' E 007°19'2 3.3
2015-Jul-02 00:32N 54°59' E 007°16'6014.8
2015-Jul-01 20:29N 54°31' E 005°44'1515.7
2015-Jul-01 19:33N 54°24' E 005°22'1515.1
2015-Jul-01 18:33N 54°16' E 005°00'1614.8
2015-Jul-01 17:30N 54°05' E 004°41'1515.6
2015-Jul-01 16:33N 53°52' E 004°30'4615.2
2015-Jul-01 13:31N 53°18' E 003°36'1515.5
2015-Jul-01 12:33N 53°05' E 003°26'1514.6
2015-Jul-01 11:33N 52°51' E 003°17'1615.7
2015-Jul-01 10:33N 52°37' E 003°06'1615.9
2015-Jul-01 09:34N 52°23' E 002°55'1515.4
2015-Jul-01 08:34N 52°09' E 002°44'1515.2
2015-Jul-01 07:34N 51°54' E 002°40'1413.6
2015-Jul-01 06:33N 51°42' E 002°29'1413.9
2015-Jul-01 05:33N 51°31' E 002°14'1514.6
2015-Jul-01 04:33N 51°20' E 001°59'1514.8
2015-Jul-01 03:33N 51°09' E 001°43'1515.2
2015-Jul-01 02:33N 50°57' E 001°28'1615.8
2015-Jul-01 01:34N 50°42' E 001°20'1615.6
2015-Jul-01 00:31N 50°32' E 001°01'3214.5
2015-Jun-30 22:19N 50°22' E 000°13'1114.5
2015-Jun-30 21:33N 50°19' W 000°04'1515.0
2015-Jun-30 20:34N 50°15' W 000°27'1616.0
2015-Jun-30 19:33N 50°11' W 000°50'1717.1
2015-Jun-30 18:33N 50°06' W 001°16'1817.7
2015-Jun-30 17:33N 50°01' W 001°43'1717.2
2015-Jun-30 16:33N 49°57' W 002°09'1615.8
2015-Jun-30 15:33N 49°53' W 002°32'1515.2
2015-Jun-30 14:33N 49°50' W 002°55'1615.7
2015-Jun-30 13:33N 49°50' W 003°19'9315.3
2015-Jun-30 07:30N 49°55' W 005°43'2412.0
2015-Jun-30 05:29N 50°16' W 006°02'1414.7
2015-Jun-30 04:32N 50°28' W 006°13'1515.5
2015-Jun-30 03:33N 50°39' W 006°29'1615.6
2015-Jun-30 02:33N 50°50' W 006°47'1615.7
2015-Jun-30 01:33N 51°01' W 007°04'2115.7
2015-Jun-30 00:13N 51°16' W 007°28'1015.6
2015-Jun-29 23:33N 51°23' W 007°40'1515.5
2015-Jun-29 22:34N 51°34' W 007°57'1515.2
2015-Jun-29 21:33N 51°45' W 008°15'6 6.3
2015-Jun-29 20:33N 51°50' W 008°19'0 0.5
2015-Jun-29 19:33N 51°50' W 008°20'0 0.0
2015-Jun-29 18:30N 51°50' W 008°20'0 0.0
2015-Jun-29 17:33N 51°50' W 008°20'0 0.0
2015-Jun-29 16:33N 51°50' W 008°20'0 0.0
2015-Jun-29 15:33N 51°50' W 008°20'0 0.0
2015-Jun-29 14:33N 51°50' W 008°20'0 0.0
2015-Jun-29 13:30N 51°50' W 008°20'0 0.0
2015-Jun-29 12:27N 51°50' W 008°20'0 0.0
2015-Jun-29 11:33N 51°50' W 008°20'0 0.0
2015-Jun-29 10:33N 51°50' W 008°20'0 0.0
2015-Jun-29 09:33N 51°50' W 008°20'1 1.3
2015-Jun-29 08:33N 51°51' W 008°18'7 7.3
2015-Jun-29 07:34N 51°45' W 008°11'1716.5
2015-Jun-29 06:33N 51°42' W 007°45'1817.6
2015-Jun-29 05:33N 51°40' W 007°17'4117.3
2015-Jun-29 03:11N 51°34' W 006°11'1117.2
2015-Jun-29 02:33N 51°33' W 005°53'10016.4
2015-Jun-28 20:27N 51°21' W 003°14'1314.4
2015-Jun-28 19:33N 51°28' W 002°56'8 7.7
2015-Jun-28 18:32N 51°30' W 002°44'0 0.4
2015-Jun-28 17:31N 51°30' W 002°43'0 0.0
2015-Jun-28 16:31N 51°30' W 002°43'0 0.0
2015-Jun-28 15:31N 51°30' W 002°43'0 0.0
2015-Jun-28 14:31N 51°30' W 002°43'0 0.0
2015-Jun-28 13:31N 51°30' W 002°43'0 0.0
2015-Jun-28 12:31N 51°30' W 002°43'0 0.0
2015-Jun-28 11:31N 51°30' W 002°43'0 0.0
2015-Jun-28 10:31N 51°30' W 002°43'0 0.0
2015-Jun-28 09:31N 51°30' W 002°43'0 0.0
2015-Jun-28 08:31N 51°30' W 002°43'0 0.0
2015-Jun-28 07:31N 51°30' W 002°43'0 0.0
2015-Jun-28 06:31N 51°30' W 002°43'0 0.0
2015-Jun-28 05:31N 51°30' W 002°43'0 0.0
2015-Jun-28 04:31N 51°30' W 002°43'0 0.0
2015-Jun-28 03:31N 51°30' W 002°43'0 0.0
2015-Jun-28 02:33N 51°30' W 002°43'1 0.5
2015-Jun-28 01:34N 51°30' W 002°44'1010.3
2015-Jun-28 00:33N 51°27' W 002°59'8613.5
2015-Jun-27 18:12N 50°50' W 005°03'1016.1
2015-Jun-27 17:33N 50°43' W 005°15'1616.1
2015-Jun-27 16:33N 50°31' W 005°33'1916.0
2015-Jun-27 15:24N 50°17' W 005°52'46618.0
2015-Jun-26 13:28N 43°01' W 009°47'1718.2
2015-Jun-26 12:33N 42°44' W 009°47'1817.8
2015-Jun-26 11:33N 42°26' W 009°47'5518.3
2015-Jun-26 08:32N 41°31' W 009°49'1818.4
2015-Jun-26 07:33N 41°13' W 009°49'1817.9
2015-Jun-26 06:31N 40°55' W 009°49'2017.8
2015-Jun-26 05:23N 40°34' W 009°50'1517.9
2015-Jun-26 04:33N 40°19' W 009°50'1818.0
2015-Jun-26 03:33N 40°01' W 009°50'1817.5
2015-Jun-26 02:33N 39°44' W 009°50'1717.4
2015-Jun-26 01:33N 39°26' W 009°51'1717.0
2015-Jun-26 00:33N 39°09' W 009°51'1716.9
2015-Jun-25 23:33N 38°53' W 009°51'1716.6
2015-Jun-25 22:33N 38°36' W 009°49'1716.8
2015-Jun-25 21:33N 38°28' W 009°30'1717.1
2015-Jun-25 20:33N 38°20' W 009°11'1413.7
2015-Jun-25 19:34N 38°28' W 008°57'4 4.2
2015-Jun-25 18:32N 38°31' W 008°53'0 0.0
2015-Jun-25 17:32N 38°31' W 008°53'0 0.0
2015-Jun-25 16:32N 38°31' W 008°53'0 0.0
2015-Jun-25 15:32N 38°31' W 008°53'0 0.0
2015-Jun-25 14:29N 38°31' W 008°53'0 0.0
2015-Jun-25 13:32N 38°31' W 008°53'0 0.0
2015-Jun-25 12:32N 38°31' W 008°53'0 0.0
2015-Jun-25 11:32N 38°31' W 008°53'0 0.0
2015-Jun-25 10:33N 38°31' W 008°53'4 3.8
2015-Jun-25 09:33N 38°29' W 008°57'1211.9
2015-Jun-25 08:33N 38°18' W 009°02'1817.9
2015-Jun-25 07:33N 38°00' W 009°06'1818.2
2015-Jun-25 06:33N 37°42' W 009°10'1817.7
2015-Jun-25 05:33N 37°25' W 009°15'1817.5
2015-Jun-25 04:32N 37°08' W 009°19'2316.4
2015-Jun-25 03:09N 36°46' W 009°10'1017.1
2015-Jun-25 02:33N 36°42' W 008°59'1817.7
2015-Jun-25 01:33N 36°36' W 008°38'  

Dump ship's entire track history